Au Sable Chasm, New York
Current Conditions -  °F | °C
As of 12:53 PM on Sunday 25 Jan 2015 (Local Time) from KPBG Reporting Station
Clear Clear  
Wind Chill: -17°   Ceiling: Unl
Heat Index: -9°   Visibility: 10mi
Dew Point: -18°   Wind: 13mph
Humidity: 47%   Direction: 320°NW
Pressure: 29.81"   Gusts: 23mph
Location:  44.5125°N, 73.5235°W
Report Text: KPBG 251753Z AUTO 32011G20KT 10SM CLR M09/M18 A2981 RMK AO2 SLP098 60000 T10891183 11072 21100 51023
Loading
Personal Weather Stations






























Interactive Weather Map New forecast layout! Learn more

10-Day Weather Forecast

Advertisements
Track Severe Weather on mobile